sensor_id;sensor_type;location;lat;lon;timestamp;P1;durP1;ratioP1;P2;durP2;ratioP2
74957;SDS011;63741;42.624;26.276;2024-03-02T00:01:35;28.50;;;13.35;;
74957;SDS011;63741;42.624;26.276;2024-03-02T00:04:03;24.63;;;12.90;;
74957;SDS011;63741;42.624;26.276;2024-03-02T00:06:33;30.25;;;13.60;;
74957;SDS011;63741;42.624;26.276;2024-03-02T00:09:01;29.65;;;14.07;;
74957;SDS011;63741;42.624;26.276;2024-03-02T00:11:28;26.48;;;14.50;;
74957;SDS011;63741;42.624;26.276;2024-03-02T00:13:55;30.13;;;13.85;;
74957;SDS011;63741;42.624;26.276;2024-03-02T00:16:22;31.48;;;15.98;;
74957;SDS011;63741;42.624;26.276;2024-03-02T00:18:50;32.30;;;16.27;;
74957;SDS011;63741;42.624;26.276;2024-03-02T00:21:18;32.63;;;17.02;;
74957;SDS011;63741;42.624;26.276;2024-03-02T00:23:49;40.13;;;19.95;;
74957;SDS011;63741;42.624;26.276;2024-03-02T00:26:18;43.80;;;20.85;;
74957;SDS011;63741;42.624;26.276;2024-03-02T00:28:46;40.97;;;20.60;;
74957;SDS011;63741;42.624;26.276;2024-03-02T00:31:13;50.03;;;22.67;;
74957;SDS011;63741;42.624;26.276;2024-03-02T00:33:45;44.90;;;20.65;;
74957;SDS011;63741;42.624;26.276;2024-03-02T00:36:17;53.40;;;23.38;;
74957;SDS011;63741;42.624;26.276;2024-03-02T00:38:51;44.50;;;21.67;;
74957;SDS011;63741;42.624;26.276;2024-03-02T00:41:27;54.17;;;23.88;;
74957;SDS011;63741;42.624;26.276;2024-03-02T00:44:14;49.53;;;19.25;;
74957;SDS011;63741;42.624;26.276;2024-03-02T00:46:42;35.63;;;16.00;;
74957;SDS011;63741;42.624;26.276;2024-03-02T00:49:22;31.83;;;15.57;;
74957;SDS011;63741;42.624;26.276;2024-03-02T00:51:50;23.05;;;10.82;;
74957;SDS011;63741;42.624;26.276;2024-03-02T00:54:22;23.95;;;11.73;;
74957;SDS011;63741;42.624;26.276;2024-03-02T00:56:52;24.65;;;9.88;;
74957;SDS011;63741;42.624;26.276;2024-03-02T00:59:22;23.05;;;10.40;;
74957;SDS011;63741;42.624;26.276;2024-03-02T01:01:49;18.65;;;9.55;;
74957;SDS011;63741;42.624;26.276;2024-03-02T01:04:17;21.42;;;9.45;;
74957;SDS011;63741;42.624;26.276;2024-03-02T01:06:44;19.65;;;9.20;;
74957;SDS011;63741;42.624;26.276;2024-03-02T01:09:11;22.15;;;10.80;;
74957;SDS011;63741;42.624;26.276;2024-03-02T01:11:39;18.90;;;10.52;;
74957;SDS011;63741;42.624;26.276;2024-03-02T01:14:06;17.33;;;9.25;;
74957;SDS011;63741;42.624;26.276;2024-03-02T01:16:33;17.70;;;8.88;;
74957;SDS011;63741;42.624;26.276;2024-03-02T01:19:00;19.65;;;8.98;;
74957;SDS011;63741;42.624;26.276;2024-03-02T01:21:27;18.48;;;8.50;;
74957;SDS011;63741;42.624;26.276;2024-03-02T01:23:54;17.92;;;8.70;;
74957;SDS011;63741;42.624;26.276;2024-03-02T01:26:21;15.90;;;9.15;;
74957;SDS011;63741;42.624;26.276;2024-03-02T01:28:48;14.40;;;8.07;;
74957;SDS011;63741;42.624;26.276;2024-03-02T01:31:15;19.13;;;8.20;;
74957;SDS011;63741;42.624;26.276;2024-03-02T01:33:42;19.10;;;8.38;;
74957;SDS011;63741;42.624;26.276;2024-03-02T01:36:09;17.10;;;8.48;;
74957;SDS011;63741;42.624;26.276;2024-03-02T01:38:36;18.25;;;8.57;;
74957;SDS011;63741;42.624;26.276;2024-03-02T01:41:03;18.67;;;8.52;;
74957;SDS011;63741;42.624;26.276;2024-03-02T01:43:30;17.38;;;8.48;;
74957;SDS011;63741;42.624;26.276;2024-03-02T01:45:57;17.92;;;8.80;;
74957;SDS011;63741;42.624;26.276;2024-03-02T01:48:24;17.63;;;9.57;;
74957;SDS011;63741;42.624;26.276;2024-03-02T01:50:51;21.70;;;10.80;;
74957;SDS011;63741;42.624;26.276;2024-03-02T01:53:18;18.17;;;9.48;;
74957;SDS011;63741;42.624;26.276;2024-03-02T01:55:45;18.30;;;9.00;;
74957;SDS011;63741;42.624;26.276;2024-03-02T01:58:13;16.02;;;8.77;;
74957;SDS011;63741;42.624;26.276;2024-03-02T02:00:40;19.95;;;9.52;;
74957;SDS011;63741;42.624;26.276;2024-03-02T02:03:07;19.17;;;9.00;;
74957;SDS011;63741;42.624;26.276;2024-03-02T02:05:34;21.73;;;9.18;;
74957;SDS011;63741;42.624;26.276;2024-03-02T02:08:01;20.42;;;9.98;;
74957;SDS011;63741;42.624;26.276;2024-03-02T02:10:29;23.75;;;9.88;;
74957;SDS011;63741;42.624;26.276;2024-03-02T02:12:55;21.95;;;9.30;;
74957;SDS011;63741;42.624;26.276;2024-03-02T02:15:27;19.75;;;8.63;;
74957;SDS011;63741;42.624;26.276;2024-03-02T02:17:55;18.15;;;8.77;;
74957;SDS011;63741;42.624;26.276;2024-03-02T02:20:24;20.90;;;8.85;;
74957;SDS011;63741;42.624;26.276;2024-03-02T02:23:10;17.08;;;8.60;;
74957;SDS011;63741;42.624;26.276;2024-03-02T02:25:37;19.55;;;8.98;;
74957;SDS011;63741;42.624;26.276;2024-03-02T02:28:03;15.75;;;8.77;;
74957;SDS011;63741;42.624;26.276;2024-03-02T02:30:31;20.45;;;9.35;;
74957;SDS011;63741;42.624;26.276;2024-03-02T02:32:59;19.98;;;9.32;;
74957;SDS011;63741;42.624;26.276;2024-03-02T02:35:26;21.83;;;9.48;;
74957;SDS011;63741;42.624;26.276;2024-03-02T02:37:54;17.42;;;8.95;;
74957;SDS011;63741;42.624;26.276;2024-03-02T02:40:22;21.08;;;9.52;;
74957;SDS011;63741;42.624;26.276;2024-03-02T02:42:50;18.25;;;9.50;;
74957;SDS011;63741;42.624;26.276;2024-03-02T02:45:19;17.08;;;10.30;;
74957;SDS011;63741;42.624;26.276;2024-03-02T02:47:46;20.75;;;9.80;;
74957;SDS011;63741;42.624;26.276;2024-03-02T02:50:13;17.83;;;9.73;;
74957;SDS011;63741;42.624;26.276;2024-03-02T02:52:41;21.38;;;10.57;;
74957;SDS011;63741;42.624;26.276;2024-03-02T02:55:09;22.65;;;10.18;;
74957;SDS011;63741;42.624;26.276;2024-03-02T02:57:38;20.73;;;9.93;;
74957;SDS011;63741;42.624;26.276;2024-03-02T03:00:10;23.88;;;11.98;;
74957;SDS011;63741;42.624;26.276;2024-03-02T03:02:44;26.60;;;12.98;;
74957;SDS011;63741;42.624;26.276;2024-03-02T03:05:15;25.15;;;11.88;;
74957;SDS011;63741;42.624;26.276;2024-03-02T03:07:42;29.58;;;12.38;;
74957;SDS011;63741;42.624;26.276;2024-03-02T03:10:11;31.10;;;12.57;;
74957;SDS011;63741;42.624;26.276;2024-03-02T03:12:38;25.55;;;13.18;;
74957;SDS011;63741;42.624;26.276;2024-03-02T03:15:07;27.88;;;13.23;;
74957;SDS011;63741;42.624;26.276;2024-03-02T03:17:35;27.45;;;13.05;;
74957;SDS011;63741;42.624;26.276;2024-03-02T03:20:04;24.63;;;11.65;;
74957;SDS011;63741;42.624;26.276;2024-03-02T03:22:32;27.50;;;11.98;;
74957;SDS011;63741;42.624;26.276;2024-03-02T03:24:59;28.20;;;12.65;;
74957;SDS011;63741;42.624;26.276;2024-03-02T03:27:26;21.58;;;11.40;;
74957;SDS011;63741;42.624;26.276;2024-03-02T03:29:54;26.80;;;12.82;;
74957;SDS011;63741;42.624;26.276;2024-03-02T03:32:21;25.17;;;11.68;;
74957;SDS011;63741;42.624;26.276;2024-03-02T03:34:49;34.13;;;12.63;;
74957;SDS011;63741;42.624;26.276;2024-03-02T03:37:16;31.08;;;11.98;;
74957;SDS011;63741;42.624;26.276;2024-03-02T03:39:43;24.67;;;12.52;;
74957;SDS011;63741;42.624;26.276;2024-03-02T03:42:10;26.13;;;12.40;;
74957;SDS011;63741;42.624;26.276;2024-03-02T03:44:36;24.73;;;13.38;;
74957;SDS011;63741;42.624;26.276;2024-03-02T03:47:03;22.55;;;12.27;;
74957;SDS011;63741;42.624;26.276;2024-03-02T03:49:30;23.20;;;11.60;;
74957;SDS011;63741;42.624;26.276;2024-03-02T03:51:57;23.02;;;11.02;;
74957;SDS011;63741;42.624;26.276;2024-03-02T03:54:24;24.17;;;12.02;;
74957;SDS011;63741;42.624;26.276;2024-03-02T03:56:51;25.58;;;12.93;;
74957;SDS011;63741;42.624;26.276;2024-03-02T03:59:19;24.02;;;13.27;;
74957;SDS011;63741;42.624;26.276;2024-03-02T04:01:46;25.65;;;12.93;;
74957;SDS011;63741;42.624;26.276;2024-03-02T04:04:13;23.73;;;11.90;;
74957;SDS011;63741;42.624;26.276;2024-03-02T04:06:40;26.70;;;10.60;;
74957;SDS011;63741;42.624;26.276;2024-03-02T04:09:07;21.50;;;10.52;;
74957;SDS011;63741;42.624;26.276;2024-03-02T04:11:34;22.55;;;10.68;;
74957;SDS011;63741;42.624;26.276;2024-03-02T04:14:01;21.02;;;10.65;;
74957;SDS011;63741;42.624;26.276;2024-03-02T04:16:28;25.30;;;12.05;;
74957;SDS011;63741;42.624;26.276;2024-03-02T04:18:55;25.83;;;13.32;;
74957;SDS011;63741;42.624;26.276;2024-03-02T04:21:23;29.98;;;14.48;;
74957;SDS011;63741;42.624;26.276;2024-03-02T04:23:50;32.70;;;15.05;;
74957;SDS011;63741;42.624;26.276;2024-03-02T04:26:17;25.88;;;11.90;;
74957;SDS011;63741;42.624;26.276;2024-03-02T04:28:48;22.10;;;11.05;;
74957;SDS011;63741;42.624;26.276;2024-03-02T04:31:15;26.63;;;12.77;;
74957;SDS011;63741;42.624;26.276;2024-03-02T04:33:43;28.08;;;13.07;;
74957;SDS011;63741;42.624;26.276;2024-03-02T04:36:10;27.88;;;14.35;;
74957;SDS011;63741;42.624;26.276;2024-03-02T04:38:38;24.55;;;11.70;;
74957;SDS011;63741;42.624;26.276;2024-03-02T04:41:05;23.98;;;11.80;;
74957;SDS011;63741;42.624;26.276;2024-03-02T04:43:33;21.48;;;11.15;;
74957;SDS011;63741;42.624;26.276;2024-03-02T04:46:00;20.05;;;9.95;;
74957;SDS011;63741;42.624;26.276;2024-03-02T04:48:28;17.45;;;9.80;;
74957;SDS011;63741;42.624;26.276;2024-03-02T04:50:55;27.50;;;12.98;;
74957;SDS011;63741;42.624;26.276;2024-03-02T04:53:22;27.60;;;13.55;;
74957;SDS011;63741;42.624;26.276;2024-03-02T04:55:49;27.77;;;13.45;;
74957;SDS011;63741;42.624;26.276;2024-03-02T04:58:22;22.27;;;11.10;;
74957;SDS011;63741;42.624;26.276;2024-03-02T05:00:49;26.42;;;12.27;;
74957;SDS011;63741;42.624;26.276;2024-03-02T05:03:16;26.85;;;13.27;;
74957;SDS011;63741;42.624;26.276;2024-03-02T05:05:43;33.30;;;15.45;;
74957;SDS011;63741;42.624;26.276;2024-03-02T05:08:11;29.60;;;16.10;;
74957;SDS011;63741;42.624;26.276;2024-03-02T05:10:38;31.05;;;14.88;;
74957;SDS011;63741;42.624;26.276;2024-03-02T05:13:05;27.92;;;16.02;;
74957;SDS011;63741;42.624;26.276;2024-03-02T05:15:33;26.38;;;14.65;;
74957;SDS011;63741;42.624;26.276;2024-03-02T05:18:00;26.77;;;13.70;;
74957;SDS011;63741;42.624;26.276;2024-03-02T05:20:29;27.77;;;14.93;;
74957;SDS011;63741;42.624;26.276;2024-03-02T05:22:57;26.70;;;14.45;;
74957;SDS011;63741;42.624;26.276;2024-03-02T05:25:24;31.77;;;17.08;;
74957;SDS011;63741;42.624;26.276;2024-03-02T05:27:51;36.20;;;18.75;;
74957;SDS011;63741;42.624;26.276;2024-03-02T05:30:18;41.05;;;20.88;;
74957;SDS011;63741;42.624;26.276;2024-03-02T05:32:45;41.03;;;20.33;;
74957;SDS011;63741;42.624;26.276;2024-03-02T05:35:12;37.65;;;17.83;;
74957;SDS011;63741;42.624;26.276;2024-03-02T05:37:39;32.22;;;17.33;;
74957;SDS011;63741;42.624;26.276;2024-03-02T05:40:06;30.80;;;16.52;;
74957;SDS011;63741;42.624;26.276;2024-03-02T05:42:34;42.63;;;20.23;;
74957;SDS011;63741;42.624;26.276;2024-03-02T05:45:01;43.38;;;25.45;;
74957;SDS011;63741;42.624;26.276;2024-03-02T05:47:28;76.38;;;40.30;;
74957;SDS011;63741;42.624;26.276;2024-03-02T05:49:55;116.15;;;58.53;;
74957;SDS011;63741;42.624;26.276;2024-03-02T05:52:22;88.75;;;49.60;;
74957;SDS011;63741;42.624;26.276;2024-03-02T05:54:49;77.57;;;43.30;;
74957;SDS011;63741;42.624;26.276;2024-03-02T05:57:16;61.22;;;33.42;;
74957;SDS011;63741;42.624;26.276;2024-03-02T05:59:49;49.75;;;27.35;;
74957;SDS011;63741;42.624;26.276;2024-03-02T06:02:16;42.70;;;20.40;;
74957;SDS011;63741;42.624;26.276;2024-03-02T06:04:43;35.70;;;19.30;;
74957;SDS011;63741;42.624;26.276;2024-03-02T06:07:10;35.22;;;18.08;;
74957;SDS011;63741;42.624;26.276;2024-03-02T06:09:37;36.17;;;19.83;;
74957;SDS011;63741;42.624;26.276;2024-03-02T06:12:04;29.65;;;14.98;;
74957;SDS011;63741;42.624;26.276;2024-03-02T06:14:31;38.05;;;19.27;;
74957;SDS011;63741;42.624;26.276;2024-03-02T06:16:58;36.05;;;17.40;;
74957;SDS011;63741;42.624;26.276;2024-03-02T06:19:26;34.35;;;17.13;;
74957;SDS011;63741;42.624;26.276;2024-03-02T06:21:54;21.20;;;12.00;;
74957;SDS011;63741;42.624;26.276;2024-03-02T06:24:21;25.60;;;12.48;;
74957;SDS011;63741;42.624;26.276;2024-03-02T06:26:48;23.60;;;12.10;;
74957;SDS011;63741;42.624;26.276;2024-03-02T06:29:15;25.80;;;12.93;;
74957;SDS011;63741;42.624;26.276;2024-03-02T06:31:42;20.52;;;10.48;;
74957;SDS011;63741;42.624;26.276;2024-03-02T06:34:09;29.67;;;14.68;;
74957;SDS011;63741;42.624;26.276;2024-03-02T06:36:36;29.95;;;15.68;;
74957;SDS011;63741;42.624;26.276;2024-03-02T06:39:03;42.42;;;13.93;;
74957;SDS011;63741;42.624;26.276;2024-03-02T06:41:30;33.22;;;13.70;;
74957;SDS011;63741;42.624;26.276;2024-03-02T06:43:57;32.05;;;15.05;;
74957;SDS011;63741;42.624;26.276;2024-03-02T06:46:26;26.70;;;13.07;;
74957;SDS011;63741;42.624;26.276;2024-03-02T06:48:53;25.80;;;12.68;;
74957;SDS011;63741;42.624;26.276;2024-03-02T06:51:20;33.55;;;12.85;;
74957;SDS011;63741;42.624;26.276;2024-03-02T06:53:47;24.40;;;10.55;;
74957;SDS011;63741;42.624;26.276;2024-03-02T06:56:14;16.35;;;8.30;;
74957;SDS011;63741;42.624;26.276;2024-03-02T06:58:41;15.02;;;8.55;;
74957;SDS011;63741;42.624;26.276;2024-03-02T07:01:09;15.40;;;8.10;;
74957;SDS011;63741;42.624;26.276;2024-03-02T07:03:36;19.52;;;8.80;;
74957;SDS011;63741;42.624;26.276;2024-03-02T07:06:06;20.50;;;9.57;;
74957;SDS011;63741;42.624;26.276;2024-03-02T07:08:33;19.40;;;9.50;;
74957;SDS011;63741;42.624;26.276;2024-03-02T07:11:00;20.90;;;9.45;;
74957;SDS011;63741;42.624;26.276;2024-03-02T07:13:27;24.55;;;10.30;;
74957;SDS011;63741;42.624;26.276;2024-03-02T07:15:54;28.17;;;10.10;;
74957;SDS011;63741;42.624;26.276;2024-03-02T07:18:41;27.38;;;12.00;;
74957;SDS011;63741;42.624;26.276;2024-03-02T07:21:08;19.65;;;9.50;;
74957;SDS011;63741;42.624;26.276;2024-03-02T07:23:35;25.98;;;13.00;;
74957;SDS011;63741;42.624;26.276;2024-03-02T07:26:02;20.88;;;11.30;;
74957;SDS011;63741;42.624;26.276;2024-03-02T07:28:33;24.50;;;12.10;;
74957;SDS011;63741;42.624;26.276;2024-03-02T07:31:00;20.02;;;9.68;;
74957;SDS011;63741;42.624;26.276;2024-03-02T07:33:31;34.35;;;16.52;;
74957;SDS011;63741;42.624;26.276;2024-03-02T07:35:59;41.28;;;19.35;;
74957;SDS011;63741;42.624;26.276;2024-03-02T07:38:30;38.30;;;17.02;;
74957;SDS011;63741;42.624;26.276;2024-03-02T07:40:59;25.52;;;13.68;;
74957;SDS011;63741;42.624;26.276;2024-03-02T07:43:27;31.15;;;14.40;;
74957;SDS011;63741;42.624;26.276;2024-03-02T07:45:53;28.52;;;13.70;;
74957;SDS011;63741;42.624;26.276;2024-03-02T07:48:21;24.23;;;12.45;;
74957;SDS011;63741;42.624;26.276;2024-03-02T07:50:48;27.63;;;12.52;;
74957;SDS011;63741;42.624;26.276;2024-03-02T07:53:15;23.10;;;10.90;;
74957;SDS011;63741;42.624;26.276;2024-03-02T07:55:42;26.38;;;11.02;;
74957;SDS011;63741;42.624;26.276;2024-03-02T07:58:09;26.08;;;11.85;;
74957;SDS011;63741;42.624;26.276;2024-03-02T08:00:38;19.92;;;11.32;;
74957;SDS011;63741;42.624;26.276;2024-03-02T08:03:07;29.00;;;12.13;;
74957;SDS011;63741;42.624;26.276;2024-03-02T08:05:38;23.15;;;10.95;;
74957;SDS011;63741;42.624;26.276;2024-03-02T08:08:05;18.05;;;8.63;;
74957;SDS011;63741;42.624;26.276;2024-03-02T08:10:32;17.85;;;9.20;;
74957;SDS011;63741;42.624;26.276;2024-03-02T08:13:00;18.40;;;8.23;;
74957;SDS011;63741;42.624;26.276;2024-03-02T08:15:27;21.13;;;11.10;;
74957;SDS011;63741;42.624;26.276;2024-03-02T08:17:54;23.13;;;10.95;;
74957;SDS011;63741;42.624;26.276;2024-03-02T08:20:22;20.60;;;10.20;;
74957;SDS011;63741;42.624;26.276;2024-03-02T08:22:50;21.83;;;8.98;;
74957;SDS011;63741;42.624;26.276;2024-03-02T08:25:17;19.88;;;10.00;;
74957;SDS011;63741;42.624;26.276;2024-03-02T08:27:44;21.10;;;9.45;;
74957;SDS011;63741;42.624;26.276;2024-03-02T08:30:12;14.85;;;8.10;;
74957;SDS011;63741;42.624;26.276;2024-03-02T08:32:39;18.38;;;8.85;;
74957;SDS011;63741;42.624;26.276;2024-03-02T08:35:07;16.48;;;7.82;;
74957;SDS011;63741;42.624;26.276;2024-03-02T08:37:34;17.33;;;8.00;;
74957;SDS011;63741;42.624;26.276;2024-03-02T08:40:01;19.40;;;8.23;;
74957;SDS011;63741;42.624;26.276;2024-03-02T08:42:30;17.15;;;8.50;;
74957;SDS011;63741;42.624;26.276;2024-03-02T08:44:57;21.58;;;10.40;;
74957;SDS011;63741;42.624;26.276;2024-03-02T08:47:24;23.60;;;11.43;;
74957;SDS011;63741;42.624;26.276;2024-03-02T08:49:51;20.48;;;8.98;;
74957;SDS011;63741;42.624;26.276;2024-03-02T08:52:18;21.83;;;9.55;;
74957;SDS011;63741;42.624;26.276;2024-03-02T08:54:45;17.98;;;8.30;;
74957;SDS011;63741;42.624;26.276;2024-03-02T08:57:12;19.20;;;9.25;;
74957;SDS011;63741;42.624;26.276;2024-03-02T08:59:39;18.83;;;10.07;;
74957;SDS011;63741;42.624;26.276;2024-03-02T09:02:06;17.92;;;9.13;;
74957;SDS011;63741;42.624;26.276;2024-03-02T09:04:33;22.08;;;9.00;;
74957;SDS011;63741;42.624;26.276;2024-03-02T09:07:01;27.10;;;11.90;;
74957;SDS011;63741;42.624;26.276;2024-03-02T09:09:28;23.58;;;11.70;;
74957;SDS011;63741;42.624;26.276;2024-03-02T09:11:55;19.40;;;9.48;;
74957;SDS011;63741;42.624;26.276;2024-03-02T09:14:24;21.02;;;10.50;;
74957;SDS011;63741;42.624;26.276;2024-03-02T09:16:51;29.50;;;14.40;;
74957;SDS011;63741;42.624;26.276;2024-03-02T09:19:18;24.50;;;13.60;;
74957;SDS011;63741;42.624;26.276;2024-03-02T09:21:45;20.17;;;11.68;;
74957;SDS011;63741;42.624;26.276;2024-03-02T09:24:12;22.15;;;12.57;;
74957;SDS011;63741;42.624;26.276;2024-03-02T09:26:42;19.80;;;11.57;;
74957;SDS011;63741;42.624;26.276;2024-03-02T09:29:09;20.85;;;8.95;;
74957;SDS011;63741;42.624;26.276;2024-03-02T09:31:40;14.98;;;8.43;;
74957;SDS011;63741;42.624;26.276;2024-03-02T09:34:08;15.95;;;8.60;;
74957;SDS011;63741;42.624;26.276;2024-03-02T09:36:35;18.95;;;9.02;;
74957;SDS011;63741;42.624;26.276;2024-03-02T09:39:01;17.25;;;9.13;;
74957;SDS011;63741;42.624;26.276;2024-03-02T09:41:32;22.73;;;9.10;;
74957;SDS011;63741;42.624;26.276;2024-03-02T09:44:00;21.30;;;9.95;;
74957;SDS011;63741;42.624;26.276;2024-03-02T09:46:27;19.65;;;9.65;;
74957;SDS011;63741;42.624;26.276;2024-03-02T09:48:54;20.55;;;10.52;;
74957;SDS011;63741;42.624;26.276;2024-03-02T09:51:21;19.60;;;10.15;;
74957;SDS011;63741;42.624;26.276;2024-03-02T09:53:49;23.90;;;12.38;;
74957;SDS011;63741;42.624;26.276;2024-03-02T09:56:17;21.73;;;11.43;;
74957;SDS011;63741;42.624;26.276;2024-03-02T09:58:44;23.48;;;12.55;;
74957;SDS011;63741;42.624;26.276;2024-03-02T10:01:11;26.63;;;13.60;;
74957;SDS011;63741;42.624;26.276;2024-03-02T10:03:39;21.52;;;11.20;;
74957;SDS011;63741;42.624;26.276;2024-03-02T10:06:24;22.60;;;9.90;;
74957;SDS011;63741;42.624;26.276;2024-03-02T10:08:52;20.88;;;11.38;;
74957;SDS011;63741;42.624;26.276;2024-03-02T10:11:31;22.08;;;11.30;;
74957;SDS011;63741;42.624;26.276;2024-03-02T10:14:18;20.15;;;11.00;;
74957;SDS011;63741;42.624;26.276;2024-03-02T10:16:45;22.65;;;10.82;;
74957;SDS011;63741;42.624;26.276;2024-03-02T10:21:50;19.88;;;11.65;;
74957;SDS011;63741;42.624;26.276;2024-03-02T10:24:18;24.98;;;13.25;;
74957;SDS011;63741;42.624;26.276;2024-03-02T10:26:46;23.73;;;12.20;;
74957;SDS011;63741;42.624;26.276;2024-03-02T10:29:13;20.63;;;11.23;;
74957;SDS011;63741;42.624;26.276;2024-03-02T10:31:44;21.27;;;10.50;;
74957;SDS011;63741;42.624;26.276;2024-03-02T10:34:15;20.40;;;10.80;;
74957;SDS011;63741;42.624;26.276;2024-03-02T10:36:43;24.40;;;11.25;;
74957;SDS011;63741;42.624;26.276;2024-03-02T10:39:12;22.75;;;11.30;;
74957;SDS011;63741;42.624;26.276;2024-03-02T10:41:41;21.30;;;11.35;;
74957;SDS011;63741;42.624;26.276;2024-03-02T10:44:08;22.05;;;10.55;;
74957;SDS011;63741;42.624;26.276;2024-03-02T10:46:37;21.30;;;10.88;;
74957;SDS011;63741;42.624;26.276;2024-03-02T10:49:05;19.35;;;11.48;;
74957;SDS011;63741;42.624;26.276;2024-03-02T10:51:35;27.27;;;14.80;;
74957;SDS011;63741;42.624;26.276;2024-03-02T10:54:04;23.15;;;13.13;;
74957;SDS011;63741;42.624;26.276;2024-03-02T10:56:39;27.60;;;14.32;;
74957;SDS011;63741;42.624;26.276;2024-03-02T10:59:22;27.27;;;13.77;;
74957;SDS011;63741;42.624;26.276;2024-03-02T11:01:58;28.13;;;14.25;;
74957;SDS011;63741;42.624;26.276;2024-03-02T11:04:31;24.73;;;13.75;;
74957;SDS011;63741;42.624;26.276;2024-03-02T11:07:04;27.40;;;14.40;;
74957;SDS011;63741;42.624;26.276;2024-03-02T11:09:34;28.92;;;13.85;;
74957;SDS011;63741;42.624;26.276;2024-03-02T11:12:03;28.45;;;15.55;;
74957;SDS011;63741;42.624;26.276;2024-03-02T11:14:36;26.90;;;16.65;;
74957;SDS011;63741;42.624;26.276;2024-03-02T11:17:07;29.77;;;19.58;;
74957;SDS011;63741;42.624;26.276;2024-03-02T11:19:34;33.58;;;21.92;;
74957;SDS011;63741;42.624;26.276;2024-03-02T11:22:04;31.20;;;17.73;;
74957;SDS011;63741;42.624;26.276;2024-03-02T11:24:31;24.45;;;14.80;;
74957;SDS011;63741;42.624;26.276;2024-03-02T11:27:06;30.58;;;17.25;;
74957;SDS011;63741;42.624;26.276;2024-03-02T11:29:42;29.25;;;15.82;;
74957;SDS011;63741;42.624;26.276;2024-03-02T11:32:14;28.13;;;16.65;;
74957;SDS011;63741;42.624;26.276;2024-03-02T11:34:48;32.00;;;18.13;;
74957;SDS011;63741;42.624;26.276;2024-03-02T11:37:17;27.05;;;14.32;;
74957;SDS011;63741;42.624;26.276;2024-03-02T11:39:45;29.77;;;15.68;;
74957;SDS011;63741;42.624;26.276;2024-03-02T11:42:13;36.08;;;20.85;;
74957;SDS011;63741;42.624;26.276;2024-03-02T11:44:47;25.63;;;14.32;;
74957;SDS011;63741;42.624;26.276;2024-03-02T11:47:15;29.90;;;15.18;;
74957;SDS011;63741;42.624;26.276;2024-03-02T11:52:18;30.50;;;14.48;;
74957;SDS011;63741;42.624;26.276;2024-03-02T11:54:45;28.50;;;17.60;;
74957;SDS011;63741;42.624;26.276;2024-03-02T11:57:14;27.20;;;16.10;;
74957;SDS011;63741;42.624;26.276;2024-03-02T11:59:42;32.08;;;22.10;;
74957;SDS011;63741;42.624;26.276;2024-03-02T12:02:17;26.65;;;15.90;;
74957;SDS011;63741;42.624;26.276;2024-03-02T12:04:46;27.70;;;16.10;;
74957;SDS011;63741;42.624;26.276;2024-03-02T12:07:18;29.60;;;16.70;;
74957;SDS011;63741;42.624;26.276;2024-03-02T12:09:48;27.90;;;15.93;;
74957;SDS011;63741;42.624;26.276;2024-03-02T12:12:16;26.35;;;14.40;;
74957;SDS011;63741;42.624;26.276;2024-03-02T12:14:51;25.60;;;13.95;;
74957;SDS011;63741;42.624;26.276;2024-03-02T12:19:46;23.73;;;13.00;;
74957;SDS011;63741;42.624;26.276;2024-03-02T12:22:13;24.30;;;13.20;;
74957;SDS011;63741;42.624;26.276;2024-03-02T12:24:41;19.23;;;11.77;;
74957;SDS011;63741;42.624;26.276;2024-03-02T12:27:12;27.25;;;12.70;;
74957;SDS011;63741;42.624;26.276;2024-03-02T12:29:41;18.65;;;11.35;;
74957;SDS011;63741;42.624;26.276;2024-03-02T12:32:08;22.70;;;12.73;;
74957;SDS011;63741;42.624;26.276;2024-03-02T12:34:35;23.10;;;12.57;;
74957;SDS011;63741;42.624;26.276;2024-03-02T12:37:04;19.02;;;11.63;;
74957;SDS011;63741;42.624;26.276;2024-03-02T12:39:31;25.67;;;12.45;;
74957;SDS011;63741;42.624;26.276;2024-03-02T12:41:59;25.90;;;13.13;;
74957;SDS011;63741;42.624;26.276;2024-03-02T12:44:26;23.00;;;11.32;;
74957;SDS011;63741;42.624;26.276;2024-03-02T12:46:53;20.65;;;11.50;;
74957;SDS011;63741;42.624;26.276;2024-03-02T12:49:24;21.85;;;10.52;;
74957;SDS011;63741;42.624;26.276;2024-03-02T12:51:51;18.10;;;9.65;;
74957;SDS011;63741;42.624;26.276;2024-03-02T12:54:21;21.10;;;10.65;;
74957;SDS011;63741;42.624;26.276;2024-03-02T12:56:49;21.23;;;11.50;;
74957;SDS011;63741;42.624;26.276;2024-03-02T12:59:18;18.40;;;10.50;;
74957;SDS011;63741;42.624;26.276;2024-03-02T13:01:52;19.35;;;10.38;;
74957;SDS011;63741;42.624;26.276;2024-03-02T13:04:24;18.58;;;10.20;;
74957;SDS011;63741;42.624;26.276;2024-03-02T13:06:51;19.77;;;9.55;;
74957;SDS011;63741;42.624;26.276;2024-03-02T13:09:18;20.30;;;9.57;;
74957;SDS011;63741;42.624;26.276;2024-03-02T13:11:45;16.75;;;9.57;;
74957;SDS011;63741;42.624;26.276;2024-03-02T13:14:13;20.80;;;9.95;;
74957;SDS011;63741;42.624;26.276;2024-03-02T13:16:40;17.88;;;9.88;;
74957;SDS011;63741;42.624;26.276;2024-03-02T13:19:13;19.02;;;9.93;;
74957;SDS011;63741;42.624;26.276;2024-03-02T13:21:41;18.40;;;10.20;;
74957;SDS011;63741;42.624;26.276;2024-03-02T13:24:08;25.05;;;10.68;;
74957;SDS011;63741;42.624;26.276;2024-03-02T13:26:35;17.60;;;9.40;;
74957;SDS011;63741;42.624;26.276;2024-03-02T13:29:02;16.77;;;9.98;;
74957;SDS011;63741;42.624;26.276;2024-03-02T13:31:29;18.77;;;10.63;;
74957;SDS011;63741;42.624;26.276;2024-03-02T13:33:56;19.67;;;10.32;;
74957;SDS011;63741;42.624;26.276;2024-03-02T13:36:23;22.23;;;11.65;;
74957;SDS011;63741;42.624;26.276;2024-03-02T13:38:51;23.08;;;11.45;;
74957;SDS011;63741;42.624;26.276;2024-03-02T13:41:18;22.40;;;11.90;;
74957;SDS011;63741;42.624;26.276;2024-03-02T13:43:46;17.65;;;11.20;;
74957;SDS011;63741;42.624;26.276;2024-03-02T13:46:16;18.90;;;11.05;;
74957;SDS011;63741;42.624;26.276;2024-03-02T13:48:43;18.95;;;11.57;;
74957;SDS011;63741;42.624;26.276;2024-03-02T13:51:10;19.73;;;10.65;;
74957;SDS011;63741;42.624;26.276;2024-03-02T13:53:37;18.38;;;10.63;;
74957;SDS011;63741;42.624;26.276;2024-03-02T13:56:04;20.10;;;10.60;;
74957;SDS011;63741;42.624;26.276;2024-03-02T13:58:32;22.65;;;12.95;;
74957;SDS011;63741;42.624;26.276;2024-03-02T14:00:58;25.02;;;15.07;;
74957;SDS011;63741;42.624;26.276;2024-03-02T14:03:26;31.58;;;15.80;;
74957;SDS011;63741;42.624;26.276;2024-03-02T14:05:56;24.98;;;14.45;;
74957;SDS011;63741;42.624;26.276;2024-03-02T14:08:24;19.10;;;12.68;;
74957;SDS011;63741;42.624;26.276;2024-03-02T14:10:51;24.63;;;12.90;;
74957;SDS011;63741;42.624;26.276;2024-03-02T14:13:18;19.48;;;11.68;;
74957;SDS011;63741;42.624;26.276;2024-03-02T14:15:45;23.55;;;14.02;;
74957;SDS011;63741;42.624;26.276;2024-03-02T14:18:12;21.67;;;13.57;;
74957;SDS011;63741;42.624;26.276;2024-03-02T14:20:39;27.58;;;14.15;;
74957;SDS011;63741;42.624;26.276;2024-03-02T14:23:10;20.92;;;12.95;;
74957;SDS011;63741;42.624;26.276;2024-03-02T14:25:37;28.75;;;15.30;;